Terminal Aerodrome Forecast
Issued by NWS Quad Cities IA IL

Home | Current Version | Previous Version | Text Only | Print | Product List | Glossary On
Versions: 1 2 3 4 5 6 7 8 9 10 11 12 13 14 15 16 17 18 19 20 21 22 23 24 25 26 27 28 29 30 31 32 33 34 35 36
000
FTUS43 KDVN 281128
TAFDBQ
TAF
KDBQ 281128Z 2812/2912 15004KT P6SM BKN150
     FM281400 13009KT P6SM VCSH BKN070
     FM281600 13012KT 5SM -RA BR SCT025 OVC040
     FM282000 12009KT 3SM -RA BR OVC025
     FM290600 18005KT 3SM BR OVC015=

USA.gov is the U.S. government's official web portal to all federal, state and local government web resources and services.